createdAt,value
2022-08-19T00:02:06.795Z,24.95
2022-08-19T00:04:37.338Z,26.27
2022-08-19T00:07:06.018Z,27.70
2022-08-19T00:09:33.364Z,26.63
2022-08-19T00:12:01.118Z,27.13
2022-08-19T00:14:31.109Z,26.83
2022-08-19T00:16:58.299Z,27.40
2022-08-19T00:19:25.724Z,26.50
2022-08-19T00:21:53.303Z,27.08
2022-08-19T00:24:20.744Z,27.83
2022-08-19T00:26:47.898Z,28.27
2022-08-19T00:29:16.139Z,28.27
2022-08-19T00:31:44.015Z,28.92
2022-08-19T00:34:12.839Z,28.55
2022-08-19T00:36:40.282Z,27.85
2022-08-19T00:39:08.051Z,27.20
2022-08-19T00:41:35.261Z,26.92
2022-08-19T00:44:06.837Z,28.55
2022-08-19T00:46:36.961Z,27.92
2022-08-19T00:49:07.498Z,28.27
2022-08-19T00:51:35.435Z,28.02
2022-08-19T00:54:03.762Z,28.67
2022-08-19T00:56:31.611Z,27.75
2022-08-19T00:59:00.019Z,27.55
2022-08-19T01:01:27.708Z,27.88
2022-08-19T01:03:57.783Z,28.50
2022-08-19T01:06:26.161Z,27.73
2022-08-19T01:08:53.357Z,27.10
2022-08-19T01:11:20.775Z,29.02
2022-08-19T01:13:49.326Z,27.63
2022-08-19T01:16:19.179Z,28.45
2022-08-19T01:18:46.332Z,28.15
2022-08-19T01:21:33.332Z,27.17
2022-08-19T01:24:00.724Z,27.77
2022-08-19T01:26:28.882Z,28.02
2022-08-19T01:29:01.098Z,27.63
2022-08-19T01:31:32.681Z,28.15
2022-08-19T01:34:01.098Z,28.60
2022-08-19T01:36:30.486Z,26.83
2022-08-19T01:38:59.036Z,27.15
2022-08-19T01:41:26.413Z,28.85
2022-08-19T01:44:12.398Z,29.00
2022-08-19T01:46:41.826Z,28.95
2022-08-19T01:49:09.315Z,28.67
2022-08-19T01:51:40.030Z,27.30
2022-08-19T01:54:08.070Z,27.92
2022-08-19T01:56:35.276Z,28.50
2022-08-19T01:59:04.216Z,28.30
2022-08-19T02:01:32.887Z,27.10
2022-08-19T02:04:01.674Z,28.85
2022-08-19T02:06:30.127Z,28.92
2022-08-19T02:08:57.787Z,28.23
2022-08-19T02:11:27.478Z,30.02
2022-08-19T02:13:55.632Z,30.75
2022-08-19T02:16:23.311Z,28.17
2022-08-19T02:18:50.892Z,28.15
2022-08-19T02:21:18.726Z,29.52
2022-08-19T02:23:46.302Z,29.13
2022-08-19T02:26:14.019Z,29.08
2022-08-19T02:28:41.984Z,30.25
2022-08-19T02:31:13.612Z,30.35
2022-08-19T02:33:40.876Z,29.30
2022-08-19T02:36:09.080Z,29.42
2022-08-19T02:38:36.637Z,29.17
2022-08-19T02:41:05.746Z,28.92
2022-08-19T02:43:38.000Z,28.98
2022-08-19T02:46:23.611Z,28.27
2022-08-19T02:48:51.746Z,28.73
2022-08-19T02:51:27.367Z,29.45
2022-08-19T02:53:55.033Z,28.83
2022-08-19T02:56:22.615Z,29.48
2022-08-19T02:58:49.816Z,29.85
2022-08-19T03:01:30.016Z,29.30
2022-08-19T03:04:00.813Z,29.40
2022-08-19T03:06:28.571Z,28.30
2022-08-19T03:08:56.365Z,28.38
2022-08-19T03:11:28.120Z,29.13
2022-08-19T03:13:56.051Z,28.13
2022-08-19T03:16:23.913Z,29.02
2022-08-19T03:18:51.942Z,28.98
2022-08-19T03:21:20.134Z,28.30
2022-08-19T03:23:47.367Z,28.30
2022-08-19T03:26:17.082Z,30.10
2022-08-19T03:28:47.744Z,27.50
2022-08-19T03:31:44.563Z,29.08
2022-08-19T03:34:09.333Z,28.17
2022-08-19T03:36:37.386Z,27.42
2022-08-19T03:39:04.536Z,26.80
2022-08-19T03:41:45.450Z,26.42
2022-08-19T03:44:16.842Z,27.25
2022-08-19T03:46:45.635Z,27.40
2022-08-19T03:49:14.064Z,27.25
2022-08-19T03:51:42.581Z,26.40
2022-08-19T03:54:11.211Z,26.77
2022-08-19T03:56:39.803Z,25.00
2022-08-19T03:59:07.860Z,26.10
2022-08-19T04:01:35.732Z,25.30
2022-08-19T04:04:04.789Z,26.30
2022-08-19T04:06:39.526Z,25.40
2022-08-19T04:09:09.536Z,25.40
2022-08-19T04:11:43.528Z,24.20
2022-08-19T04:14:15.886Z,25.65
2022-08-19T04:16:45.320Z,24.52
2022-08-19T04:19:13.277Z,25.80
2022-08-19T04:21:40.508Z,25.00
2022-08-19T04:24:08.229Z,25.17
2022-08-19T04:26:37.280Z,26.30
2022-08-19T04:29:11.719Z,25.42
2022-08-19T04:31:40.250Z,24.85
2022-08-19T04:34:08.556Z,25.45
2022-08-19T04:36:37.069Z,25.60
2022-08-19T04:39:05.967Z,26.52
2022-08-19T04:41:52.110Z,25.70
2022-08-19T04:44:19.917Z,25.02
2022-08-19T04:46:51.605Z,25.45
2022-08-19T04:49:20.017Z,25.25
2022-08-19T04:51:50.896Z,23.20
2022-08-19T04:54:25.886Z,25.40
2022-08-19T04:57:08.050Z,25.45
2022-08-19T04:59:35.730Z,24.42
2022-08-19T05:02:02.913Z,23.63
2022-08-19T05:04:31.854Z,23.42
2022-08-19T05:07:00.879Z,24.67
2022-08-19T05:09:52.526Z,22.83
2022-08-19T05:12:16.594Z,24.02
2022-08-19T05:14:44.246Z,22.95
2022-08-19T05:17:27.262Z,23.33
2022-08-19T05:20:14.052Z,23.63
2022-08-19T05:22:41.371Z,24.10
2022-08-19T05:25:13.093Z,22.52
2022-08-19T05:27:40.925Z,22.45
2022-08-19T05:30:08.365Z,23.25
2022-08-19T05:32:35.726Z,21.70
2022-08-19T05:35:03.020Z,23.00
2022-08-19T05:37:30.480Z,21.05
2022-08-19T05:39:57.808Z,22.30
2022-08-19T05:42:25.102Z,22.45
2022-08-19T05:44:52.741Z,21.15
2022-08-19T05:47:20.982Z,20.88
2022-08-19T05:49:48.726Z,21.65
2022-08-19T05:52:18.973Z,20.75
2022-08-19T05:54:51.091Z,21.73
2022-08-19T05:57:18.723Z,21.67
2022-08-19T05:59:53.105Z,21.25
2022-08-19T06:02:25.964Z,20.13
2022-08-19T06:04:53.270Z,18.75
2022-08-19T06:07:20.680Z,19.42
2022-08-19T06:09:54.482Z,17.83
2022-08-19T06:12:31.515Z,18.65
2022-08-19T06:15:01.500Z,19.17
2022-08-19T06:17:31.009Z,18.58
2022-08-19T06:19:59.206Z,17.90
2022-08-19T06:22:26.367Z,18.20
2022-08-19T06:24:54.764Z,17.83
2022-08-19T06:27:22.344Z,17.25
2022-08-19T06:29:49.645Z,16.30
2022-08-19T06:32:17.728Z,16.13
2022-08-19T06:34:44.987Z,16.08
2022-08-19T06:37:13.003Z,16.20
2022-08-19T06:39:41.349Z,16.80
2022-08-19T06:42:12.268Z,15.77
2022-08-19T06:44:43.269Z,16.58
2022-08-19T06:47:14.910Z,16.15
2022-08-19T06:49:50.622Z,15.57
2022-08-19T06:52:17.907Z,15.15
2022-08-19T06:54:55.639Z,15.50
2022-08-19T06:57:24.394Z,15.02
2022-08-19T06:59:51.745Z,14.88
2022-08-19T07:04:46.609Z,14.23
2022-08-19T07:07:19.968Z,13.75
2022-08-19T07:09:58.389Z,12.77
2022-08-19T07:12:28.058Z,14.30
2022-08-19T07:14:56.810Z,12.80
2022-08-19T07:17:25.139Z,14.43
2022-08-19T07:19:54.248Z,13.75
2022-08-19T07:22:23.701Z,14.00
2022-08-19T07:24:51.841Z,13.40
2022-08-19T07:27:22.528Z,12.75
2022-08-19T07:29:57.287Z,12.18
2022-08-19T07:32:27.595Z,11.60
2022-08-19T07:34:55.014Z,13.07
2022-08-19T07:37:23.854Z,11.63
2022-08-19T08:43:23.915Z,8.73
2022-08-19T08:45:55.256Z,8.88
2022-08-19T08:50:54.895Z,7.82
2022-08-19T08:53:27.445Z,8.02
2022-08-19T08:56:04.056Z,9.55
2022-08-19T08:58:42.953Z,8.80
2022-08-19T09:01:13.677Z,9.18
2022-08-19T09:03:42.870Z,9.88
2022-08-19T09:06:36.466Z,9.13
2022-08-19T09:09:12.543Z,8.90
2022-08-19T09:11:45.844Z,9.32
2022-08-19T09:14:47.257Z,9.13
2022-08-19T09:17:09.141Z,10.35
2022-08-19T09:19:37.720Z,11.02
2022-08-19T09:22:06.282Z,9.05
2022-08-19T09:24:33.485Z,9.57
2022-08-19T09:27:00.722Z,8.88
2022-08-19T09:29:31.453Z,9.75
2022-08-19T09:31:58.676Z,9.95
2022-08-19T09:34:26.456Z,9.20
2022-08-19T09:37:01.130Z,10.45
2022-08-19T09:39:35.870Z,11.63
2022-08-19T09:42:04.629Z,11.95
2022-08-19T09:44:31.994Z,11.55
2022-08-19T09:46:59.359Z,11.75
2022-08-19T09:49:26.605Z,10.98
2022-08-19T09:52:01.346Z,9.80
2022-08-19T09:54:31.257Z,9.60
2022-08-19T09:57:01.331Z,11.32
2022-08-19T09:59:32.385Z,9.98
2022-08-19T10:02:03.901Z,9.45
2022-08-19T10:04:56.960Z,9.48
2022-08-19T10:07:28.990Z,9.45
2022-08-19T10:10:07.250Z,9.70
2022-08-19T10:12:35.309Z,9.30
2022-08-19T10:15:02.622Z,10.32
2022-08-19T10:17:33.519Z,9.13
2022-08-19T10:20:01.208Z,9.02
2022-08-19T10:22:30.364Z,10.00
2022-08-19T10:24:58.707Z,11.85
2022-08-19T10:27:28.414Z,9.68
2022-08-19T10:29:59.530Z,10.20
2022-08-19T10:32:34.256Z,9.05
2022-08-19T10:35:01.900Z,8.00
2022-08-19T10:37:32.529Z,7.78
2022-08-19T10:40:03.070Z,8.88
2022-08-19T10:42:32.112Z,8.93
2022-08-19T10:45:02.012Z,9.50
2022-08-19T10:47:43.245Z,9.88
2022-08-19T10:50:30.153Z,9.82
2022-08-19T10:52:57.347Z,11.05
2022-08-19T10:55:44.238Z,8.73
2022-08-19T10:58:15.440Z,9.43
2022-08-19T11:00:44.301Z,9.02
2022-08-19T11:03:11.710Z,9.52
2022-08-19T11:05:40.421Z,10.93
2022-08-19T11:08:18.105Z,11.18
2022-08-19T11:10:51.579Z,9.30
2022-08-19T11:13:18.775Z,8.70
2022-08-19T11:15:48.282Z,11.00
2022-08-19T11:18:15.409Z,9.88
2022-08-19T11:20:42.531Z,8.25
2022-08-19T11:23:09.908Z,7.97
2022-08-19T11:25:39.944Z,7.85
2022-08-19T11:28:07.080Z,7.68
2022-08-19T11:30:34.965Z,7.15
2022-08-19T11:33:03.406Z,6.85
2022-08-19T11:35:30.601Z,4.72
2022-08-19T11:38:02.294Z,7.13
2022-08-19T11:40:29.478Z,6.38
2022-08-19T11:42:57.100Z,6.97
2022-08-19T11:45:25.690Z,5.97
2022-08-19T11:47:53.071Z,6.20
2022-08-19T11:50:20.458Z,5.85
2022-08-19T11:52:47.692Z,6.15
2022-08-19T11:55:15.545Z,5.82
2022-08-19T11:57:44.570Z,5.30
2022-08-19T12:00:13.637Z,5.57
2022-08-19T12:02:41.590Z,6.22
2022-08-19T12:05:12.512Z,6.45
2022-08-19T12:07:40.635Z,7.53
2022-08-19T12:10:08.234Z,6.47
2022-08-19T12:12:35.458Z,6.50
2022-08-19T12:15:02.755Z,6.43
2022-08-19T12:17:31.754Z,6.10
2022-08-19T12:19:59.155Z,6.88
2022-08-19T12:22:26.339Z,6.18
2022-08-19T12:24:54.714Z,6.78
2022-08-19T12:27:31.992Z,6.53
2022-08-19T12:30:02.344Z,6.70
2022-08-19T12:32:29.778Z,6.03
2022-08-19T12:34:57.017Z,6.07
2022-08-19T12:37:24.146Z,5.40
2022-08-19T12:39:51.379Z,6.13
2022-08-19T12:42:18.921Z,5.82
2022-08-19T12:44:46.121Z,5.30
2022-08-19T12:47:15.296Z,5.22
2022-08-19T12:49:52.766Z,5.20
2022-08-19T12:52:23.282Z,5.40
2022-08-19T12:54:54.269Z,4.95
2022-08-19T12:57:23.226Z,4.83
2022-08-19T12:59:58.713Z,5.20
2022-08-19T13:02:25.862Z,5.03
2022-08-19T13:04:53.018Z,4.82
2022-08-19T13:07:20.149Z,4.88
2022-08-19T13:09:47.388Z,4.82
2022-08-19T13:12:14.593Z,5.28
2022-08-19T13:14:42.946Z,4.88
2022-08-19T13:17:10.121Z,5.45
2022-08-19T13:19:41.191Z,4.82
2022-08-19T13:22:13.269Z,5.50
2022-08-19T13:24:46.804Z,5.25
2022-08-19T13:30:01.005Z,4.97
2022-08-19T13:32:47.043Z,4.93
2022-08-19T13:35:17.069Z,5.07
2022-08-19T13:37:44.525Z,5.45
2022-08-19T13:40:20.035Z,4.93
2022-08-19T13:42:48.889Z,4.55
2022-08-19T13:45:17.527Z,4.30
2022-08-19T13:47:46.606Z,4.63
2022-08-19T13:50:15.074Z,4.10
2022-08-19T13:52:42.679Z,4.47
2022-08-19T13:55:10.921Z,4.32
2022-08-19T13:57:41.129Z,4.40
2022-08-19T14:00:13.107Z,4.35
2022-08-19T14:02:40.883Z,5.00
2022-08-19T14:05:09.732Z,4.90
2022-08-19T14:07:37.221Z,4.93
2022-08-19T14:10:05.355Z,4.45
2022-08-19T14:12:33.063Z,4.78
2022-08-19T14:15:00.818Z,4.38
2022-08-19T14:17:28.605Z,4.28
2022-08-19T14:20:10.220Z,4.80
2022-08-19T14:22:38.701Z,4.75
2022-08-19T14:25:07.426Z,4.68
2022-08-19T14:27:35.191Z,4.55
2022-08-19T14:30:02.878Z,4.45
2022-08-19T14:32:30.063Z,4.80
2022-08-19T14:34:57.196Z,4.50
2022-08-19T14:37:24.366Z,4.82
2022-08-19T14:39:52.182Z,5.13
2022-08-19T14:42:20.028Z,4.35
2022-08-19T14:44:47.197Z,4.80
2022-08-19T14:47:14.581Z,4.53
2022-08-19T14:49:43.947Z,4.57
2022-08-19T14:52:15.586Z,4.50
2022-08-19T14:54:42.726Z,4.68
2022-08-19T14:57:13.017Z,5.00
2022-08-19T14:59:40.177Z,4.93
2022-08-19T15:02:34.038Z,4.45
2022-08-19T15:04:58.552Z,4.85
2022-08-19T15:07:29.069Z,4.70
2022-08-19T15:09:56.893Z,4.70
2022-08-19T15:12:24.897Z,4.70
2022-08-19T15:14:55.825Z,4.45
2022-08-19T15:17:32.429Z,4.70
2022-08-19T15:20:12.121Z,4.80
2022-08-19T15:22:39.267Z,5.00
2022-08-19T15:25:07.908Z,5.07
2022-08-19T15:27:36.691Z,4.88
2022-08-19T15:30:04.862Z,5.05
2022-08-19T15:32:33.217Z,4.95
2022-08-19T15:35:02.453Z,4.97
2022-08-19T15:37:31.391Z,4.93
2022-08-19T15:39:59.039Z,4.90
2022-08-19T15:42:29.410Z,5.28
2022-08-19T15:45:00.490Z,4.60
2022-08-19T15:47:35.215Z,5.30
2022-08-19T15:50:33.177Z,5.00
2022-08-19T15:53:02.256Z,4.85
2022-08-19T15:55:34.667Z,4.93
2022-08-19T15:58:27.952Z,5.13
2022-08-19T16:01:23.813Z,4.90
2022-08-19T16:04:14.255Z,4.88
2022-08-19T16:06:53.550Z,5.13
2022-08-19T16:09:27.007Z,5.47
2022-08-19T16:11:59.684Z,5.85
2022-08-19T16:14:32.457Z,5.13
2022-08-19T16:16:59.778Z,5.25
2022-08-19T16:19:27.327Z,5.07
2022-08-19T16:21:57.214Z,4.97
2022-08-19T16:24:25.677Z,5.28
2022-08-19T16:26:53.122Z,5.03
2022-08-19T16:29:34.453Z,5.03
2022-08-19T16:32:07.866Z,5.30
2022-08-19T16:34:35.078Z,4.85
2022-08-19T16:37:02.556Z,4.93
2022-08-19T16:39:30.005Z,5.45
2022-08-19T16:41:57.653Z,5.25
2022-08-19T16:44:30.141Z,5.57
2022-08-19T16:46:59.555Z,5.18
2022-08-19T16:49:53.358Z,5.50
2022-08-19T16:52:19.605Z,5.97
2022-08-19T16:54:47.045Z,5.68
2022-08-19T16:57:17.557Z,6.28
2022-08-19T16:59:48.754Z,6.35
2022-08-19T17:02:22.069Z,5.88
2022-08-19T17:04:57.086Z,5.78
2022-08-19T17:07:26.002Z,6.43
2022-08-19T17:09:53.234Z,6.45
2022-08-19T17:12:22.945Z,6.20
2022-08-19T17:14:58.492Z,7.40
2022-08-19T17:17:28.960Z,6.55
2022-08-19T17:19:56.723Z,6.47
2022-08-19T17:22:23.929Z,6.75
2022-08-19T17:24:51.275Z,6.95
2022-08-19T17:27:19.821Z,7.05
2022-08-19T17:29:49.341Z,6.78
2022-08-19T17:32:16.586Z,6.88
2022-08-19T17:34:54.179Z,6.55
2022-08-19T17:37:21.585Z,6.85
2022-08-19T17:39:48.921Z,6.90
2022-08-19T17:42:16.208Z,7.30
2022-08-19T17:44:46.869Z,7.05
2022-08-19T17:47:18.304Z,7.10
2022-08-19T17:49:45.490Z,7.40
2022-08-19T17:52:12.674Z,6.78
2022-08-19T17:54:39.828Z,7.30
2022-08-19T17:57:07.055Z,6.93
2022-08-19T17:59:34.247Z,6.90
2022-08-19T18:02:01.515Z,7.22
2022-08-19T18:04:29.776Z,7.05
2022-08-19T18:06:57.243Z,6.47
2022-08-19T18:09:38.725Z,7.45
2022-08-19T18:12:10.682Z,7.05
2022-08-19T18:14:39.184Z,7.53
2022-08-19T18:17:09.541Z,7.25
2022-08-19T18:19:42.217Z,6.85
2022-08-19T18:22:10.886Z,7.03
2022-08-19T18:24:39.254Z,7.40
2022-08-19T18:27:07.148Z,7.55
2022-08-19T18:29:38.284Z,7.57
2022-08-19T18:32:07.079Z,8.07
2022-08-19T18:34:39.398Z,7.75
2022-08-19T18:37:06.635Z,7.68
2022-08-19T18:39:52.473Z,7.97
2022-08-19T18:42:38.580Z,7.82
2022-08-19T18:45:25.615Z,7.70
2022-08-19T18:48:26.834Z,8.05
2022-08-19T18:50:56.318Z,7.87
2022-08-19T18:53:23.573Z,8.05
2022-08-19T18:55:56.956Z,8.02
2022-08-19T18:58:26.565Z,8.38
2022-08-19T19:00:57.551Z,6.95
2022-08-19T19:03:25.514Z,8.25
2022-08-19T19:05:52.864Z,8.60
2022-08-19T19:08:20.261Z,8.43
2022-08-19T19:10:54.706Z,8.05
2022-08-19T19:13:24.289Z,8.13
2022-08-19T19:15:51.709Z,8.60
2022-08-19T19:18:19.001Z,8.07
2022-08-19T19:20:46.284Z,8.07
2022-08-19T19:23:13.527Z,8.75
2022-08-19T19:25:49.961Z,8.20
2022-08-19T19:28:22.326Z,8.25
2022-08-19T19:30:49.550Z,7.53
2022-08-19T19:33:16.826Z,8.00
2022-08-19T19:35:47.034Z,7.85
2022-08-19T19:38:14.597Z,7.82
2022-08-19T19:40:41.868Z,7.55
2022-08-19T19:43:09.183Z,7.03
2022-08-19T19:45:37.899Z,7.00
2022-08-19T19:48:05.943Z,6.57
2022-08-19T19:50:33.273Z,6.80
2022-08-19T19:53:00.615Z,6.50
2022-08-19T19:55:29.242Z,6.50
2022-08-19T19:57:57.761Z,6.35
2022-08-19T20:00:25.342Z,6.93
2022-08-19T20:02:55.798Z,6.15
2022-08-19T20:05:23.495Z,7.45
2022-08-19T20:08:10.275Z,7.00
2022-08-19T20:10:38.069Z,6.80
2022-08-19T20:13:05.784Z,6.60
2022-08-19T20:15:33.345Z,7.18
2022-08-19T20:18:02.275Z,7.15
2022-08-19T20:20:30.169Z,7.18
2022-08-19T20:22:57.439Z,7.45
2022-08-19T20:25:24.940Z,7.32
2022-08-19T20:27:52.275Z,6.97
2022-08-19T20:30:21.756Z,7.55
2022-08-19T20:32:50.791Z,6.90
2022-08-19T20:35:19.386Z,7.18
2022-08-19T20:37:46.604Z,7.05
2022-08-19T20:40:14.628Z,7.13
2022-08-19T20:42:43.097Z,6.53
2022-08-19T20:47:57.416Z,7.32
2022-08-19T20:50:26.029Z,7.40
2022-08-19T20:52:57.446Z,7.03
2022-08-19T20:55:25.837Z,7.72
2022-08-19T20:57:53.063Z,7.65
2022-08-19T21:00:20.320Z,7.45
2022-08-19T21:02:47.574Z,8.20
2022-08-19T21:05:15.030Z,8.43
2022-08-19T21:07:42.305Z,8.10
2022-08-19T21:10:09.537Z,7.35
2022-08-19T21:12:36.805Z,6.82
2022-08-19T21:15:04.359Z,7.50
2022-08-19T21:17:31.589Z,8.13
2022-08-19T21:19:58.904Z,8.10
2022-08-19T21:22:26.092Z,8.20
2022-08-19T21:24:53.323Z,7.15
2022-08-19T21:27:20.502Z,7.65
2022-08-19T21:29:48.470Z,8.18
2022-08-19T21:32:15.685Z,7.03
2022-08-19T21:34:44.064Z,7.97
2022-08-19T21:37:24.846Z,7.85
2022-08-19T21:39:53.041Z,7.63
2022-08-19T21:42:20.349Z,7.78
2022-08-19T21:44:47.536Z,7.43
2022-08-19T21:47:14.764Z,7.63
2022-08-19T21:49:42.018Z,6.72
2022-08-19T21:52:09.510Z,7.07
2022-08-19T21:54:38.331Z,6.72
2022-08-19T21:57:10.270Z,7.15
2022-08-19T21:59:41.158Z,6.18
2022-08-19T22:02:20.034Z,6.68
2022-08-19T22:04:48.194Z,6.35
2022-08-19T22:07:15.562Z,6.13
2022-08-19T22:09:43.418Z,6.63
2022-08-19T22:12:21.177Z,6.40
2022-08-19T22:14:48.404Z,6.72
2022-08-19T22:17:15.609Z,6.07
2022-08-19T22:19:42.972Z,6.25
2022-08-19T22:22:10.194Z,6.15
2022-08-19T22:37:12.206Z,5.15
2022-08-19T22:42:07.074Z,5.22
2022-08-19T22:47:02.241Z,4.70
2022-08-19T22:49:29.456Z,4.55
2022-08-19T22:52:17.543Z,4.45
2022-08-19T22:54:49.477Z,4.30
2022-08-19T22:57:19.545Z,3.65
2022-08-19T22:59:51.050Z,3.72
2022-08-19T23:02:23.335Z,4.07
2022-08-19T23:04:51.132Z,3.78
2022-08-19T23:07:19.147Z,4.15
2022-08-19T23:09:50.927Z,3.65
2022-08-19T23:12:26.283Z,4.13
2022-08-19T23:14:53.537Z,3.70
2022-08-19T23:17:21.204Z,3.15
2022-08-19T23:19:48.438Z,3.38
2022-08-19T23:22:19.095Z,4.03
2022-08-19T23:24:46.269Z,3.38
2022-08-19T23:27:32.223Z,3.38
2022-08-19T23:30:18.377Z,3.47
2022-08-19T23:32:46.386Z,3.45
2022-08-19T23:35:13.580Z,2.85
2022-08-19T23:37:40.780Z,3.40
2022-08-19T23:40:08.852Z,3.00
2022-08-19T23:42:36.332Z,2.83
2022-08-19T23:45:04.975Z,3.17
2022-08-19T23:47:34.368Z,2.75
2022-08-19T23:50:05.727Z,2.55
2022-08-19T23:52:34.373Z,2.75
2022-08-19T23:55:08.722Z,2.65
2022-08-19T23:57:36.043Z,2.67
